createdAt,value
2023-06-14T00:03:13.573Z,9.95
2023-06-14T00:06:58.176Z,10.57
2023-06-14T00:10:46.286Z,17.25
2023-06-14T00:14:28.153Z,12.73
2023-06-14T00:18:12.733Z,8.30
2023-06-14T00:21:55.145Z,9.27
2023-06-14T00:25:38.222Z,9.77
2023-06-14T00:29:21.341Z,9.57
2023-06-14T00:33:06.343Z,8.77
2023-06-14T00:36:49.280Z,7.15
2023-06-14T00:40:31.323Z,9.40
2023-06-14T00:44:17.735Z,8.93
2023-06-14T00:48:00.681Z,11.07
2023-06-14T00:51:43.843Z,8.88
2023-06-14T00:55:26.957Z,10.43
2023-06-14T00:59:08.901Z,10.50
2023-06-14T01:02:53.837Z,8.43
2023-06-14T01:06:46.697Z,10.25
2023-06-14T01:10:54.757Z,9.23
2023-06-14T01:14:43.978Z,9.18
2023-06-14T01:18:28.558Z,10.00
2023-06-14T01:22:19.525Z,10.52
2023-06-14T01:26:08.560Z,11.30
2023-06-14T01:30:00.613Z,12.25
2023-06-14T01:33:42.676Z,7.57
2023-06-14T01:37:25.108Z,9.15
2023-06-14T01:41:07.701Z,9.32
2023-06-14T01:44:50.887Z,8.90
2023-06-14T01:48:33.479Z,9.75
2023-06-14T01:52:15.259Z,10.45
2023-06-14T01:55:57.415Z,7.43
2023-06-14T01:59:39.283Z,9.63
2023-06-14T02:03:21.100Z,9.98
2023-06-14T02:07:02.996Z,8.40
2023-06-14T02:10:44.925Z,8.60
2023-06-14T02:14:27.402Z,11.03
2023-06-14T02:18:09.345Z,8.43
2023-06-14T02:21:51.149Z,11.57
2023-06-14T02:25:33.068Z,9.32
2023-06-14T02:29:16.005Z,7.20
2023-06-14T02:32:58.175Z,9.40
2023-06-14T02:36:42.646Z,9.68
2023-06-14T02:40:24.781Z,9.40
2023-06-14T02:44:07.273Z,7.57
2023-06-14T02:47:49.315Z,10.00
2023-06-14T02:51:31.177Z,8.52
2023-06-14T02:55:13.008Z,9.82
2023-06-14T02:58:54.871Z,10.45
2023-06-14T03:02:36.837Z,7.95
2023-06-14T03:06:18.700Z,12.00
2023-06-14T03:10:00.521Z,11.30
2023-06-14T03:13:42.315Z,8.68
2023-06-14T03:17:25.497Z,8.98
2023-06-14T03:21:08.215Z,8.10
2023-06-14T03:24:50.291Z,9.88
2023-06-14T03:28:32.081Z,8.93
2023-06-14T03:32:13.910Z,8.65
2023-06-14T03:35:57.381Z,8.13
2023-06-14T03:39:39.318Z,7.93
2023-06-14T03:43:21.136Z,8.18
2023-06-14T03:47:02.999Z,7.60
2023-06-14T03:50:45.655Z,7.18
2023-06-14T03:55:39.477Z,8.07
2023-06-14T03:58:30.323Z,6.30
2023-06-14T04:02:13.012Z,7.07
2023-06-14T04:05:57.791Z,7.60
2023-06-14T04:09:40.873Z,7.65
2023-06-14T04:13:22.774Z,9.07
2023-06-14T04:17:04.895Z,6.25
2023-06-14T04:20:47.467Z,6.85
2023-06-14T04:24:33.386Z,7.50
2023-06-14T04:28:19.536Z,6.47
2023-06-14T04:32:02.678Z,7.60
2023-06-14T04:35:48.394Z,6.13
2023-06-14T04:39:30.367Z,6.50
2023-06-14T04:43:16.264Z,9.35
2023-06-14T04:46:59.890Z,6.95
2023-06-14T04:50:42.121Z,4.85
2023-06-14T04:54:26.821Z,5.38
2023-06-14T04:58:09.315Z,6.25
2023-06-14T05:01:51.613Z,7.13
2023-06-14T05:05:34.562Z,9.27
2023-06-14T05:09:18.035Z,8.35
2023-06-14T05:12:59.927Z,7.20
2023-06-14T05:16:41.867Z,8.13
2023-06-14T05:20:26.050Z,6.65
2023-06-14T05:24:09.371Z,5.18
2023-06-14T05:27:51.549Z,7.55
2023-06-14T05:31:33.929Z,5.77
2023-06-14T05:35:16.222Z,5.95
2023-06-14T05:39:01.950Z,5.90
2023-06-14T05:42:43.768Z,6.13
2023-06-14T05:46:26.907Z,8.02
2023-06-14T05:50:09.568Z,5.60
2023-06-14T05:53:51.909Z,7.00
2023-06-14T05:57:33.762Z,6.35
2023-06-14T06:01:16.781Z,6.87
2023-06-14T06:04:58.581Z,7.45
2023-06-14T06:08:40.506Z,6.90
2023-06-14T06:12:22.318Z,5.40
2023-06-14T06:16:04.819Z,6.37
2023-06-14T06:19:46.776Z,6.43
2023-06-14T06:23:28.605Z,8.43
2023-06-14T06:27:11.620Z,8.77
2023-06-14T06:30:54.676Z,6.28
2023-06-14T06:34:36.948Z,5.00
2023-06-14T06:38:19.913Z,7.50
2023-06-14T06:42:02.001Z,9.63
2023-06-14T06:45:44.486Z,7.30
2023-06-14T06:53:08.423Z,6.22
2023-06-14T06:56:50.220Z,5.95
2023-06-14T07:00:32.064Z,7.03
2023-06-14T07:04:14.582Z,9.18
2023-06-14T07:11:40.887Z,5.68
2023-06-14T07:19:05.302Z,6.13
2023-06-14T07:22:47.075Z,7.40
2023-06-14T07:26:28.890Z,7.80
2023-06-14T07:30:11.301Z,12.45
2023-06-14T07:37:35.936Z,5.70
2023-06-14T07:41:18.110Z,6.25
2023-06-14T07:44:59.886Z,5.90
2023-06-14T07:48:42.027Z,14.90
2023-06-14T07:52:24.072Z,5.50
2023-06-14T07:56:05.959Z,8.70
2023-06-14T07:59:47.811Z,5.85
2023-06-14T08:03:30.855Z,6.15
2023-06-14T08:07:13.238Z,7.93
2023-06-14T08:10:55.050Z,7.05
2023-06-14T08:14:36.942Z,7.95
2023-06-14T08:18:18.817Z,9.07
2023-06-14T08:22:01.092Z,6.80
2023-06-14T08:25:42.927Z,9.82
2023-06-14T08:29:24.765Z,5.63
2023-06-14T08:33:15.810Z,6.07
2023-06-14T08:36:58.812Z,5.22
2023-06-14T08:40:42.292Z,7.90
2023-06-14T08:44:24.497Z,5.15
2023-06-14T08:48:10.497Z,5.60
2023-06-14T08:51:59.774Z,5.90
2023-06-14T08:55:44.940Z,5.57
2023-06-14T08:59:30.140Z,6.82
2023-06-14T09:03:15.269Z,5.20
2023-06-14T09:06:57.950Z,7.25
2023-06-14T09:10:41.885Z,8.07
2023-06-14T09:14:25.882Z,6.43
2023-06-14T09:18:08.085Z,5.07
2023-06-14T09:21:50.382Z,6.95
2023-06-14T09:25:38.865Z,5.05
2023-06-14T09:29:21.756Z,7.13
2023-06-14T09:33:03.725Z,4.72
2023-06-14T09:36:46.591Z,5.22
2023-06-14T09:40:29.238Z,6.90
2023-06-14T09:44:19.914Z,9.65
2023-06-14T09:51:52.626Z,5.18
2023-06-14T09:55:37.490Z,4.60
2023-06-14T09:59:30.362Z,7.43
2023-06-14T10:03:19.934Z,6.75
2023-06-14T10:07:03.577Z,5.50
2023-06-14T10:10:46.220Z,6.15
2023-06-14T10:14:28.537Z,5.82
2023-06-14T10:18:23.403Z,6.95
2023-06-14T10:22:13.599Z,4.65
2023-06-14T10:25:58.814Z,6.07
2023-06-14T10:29:56.049Z,4.45
2023-06-14T10:33:49.442Z,5.35
2023-06-14T10:37:31.357Z,4.68
2023-06-14T10:41:13.318Z,4.07
2023-06-14T10:44:56.869Z,5.15
2023-06-14T10:48:43.213Z,5.18
2023-06-14T10:52:29.600Z,7.32
2023-06-14T10:56:31.340Z,6.00
2023-06-14T11:00:16.506Z,6.90
2023-06-14T11:04:06.471Z,4.63
2023-06-14T11:08:17.166Z,7.20
2023-06-14T11:12:01.784Z,4.53
2023-06-14T11:15:48.843Z,4.78
2023-06-14T11:19:31.357Z,5.93
2023-06-14T11:26:57.841Z,8.20
2023-06-14T11:30:39.667Z,5.80
2023-06-14T11:34:21.604Z,7.93
2023-06-14T11:38:03.687Z,9.15
2023-06-14T11:41:46.586Z,5.35
2023-06-14T11:45:31.486Z,6.38
2023-06-14T11:49:13.441Z,6.60
2023-06-14T11:53:01.165Z,7.00
2023-06-14T11:56:43.315Z,7.93
2023-06-14T12:00:30.912Z,6.07
2023-06-14T12:04:12.872Z,6.95
2023-06-14T12:08:03.521Z,11.32
2023-06-14T12:11:45.439Z,6.32
2023-06-14T12:15:30.859Z,6.43
2023-06-14T12:19:18.313Z,8.15
2023-06-14T12:23:02.229Z,6.95
2023-06-14T12:26:44.162Z,5.82
2023-06-14T12:30:26.123Z,6.25
2023-06-14T12:34:08.658Z,5.90
2023-06-14T12:37:50.654Z,10.63
2023-06-14T12:41:32.562Z,6.95
2023-06-14T12:45:15.137Z,6.88
2023-06-14T12:48:57.241Z,7.47
2023-06-14T12:52:39.121Z,8.32
2023-06-14T12:56:22.643Z,6.90
2023-06-14T13:00:08.625Z,5.68
2023-06-14T13:03:52.747Z,8.38
2023-06-14T13:07:34.592Z,8.13
2023-06-14T13:11:17.062Z,7.78
2023-06-14T13:14:58.958Z,8.20
2023-06-14T13:18:41.055Z,6.38
2023-06-14T13:22:22.888Z,9.80
2023-06-14T13:26:04.722Z,9.75
2023-06-14T13:29:46.637Z,11.30
2023-06-14T13:33:28.621Z,7.30
2023-06-14T13:37:10.438Z,11.77
2023-06-14T13:40:52.413Z,10.93
2023-06-14T13:44:34.304Z,7.68
2023-06-14T13:48:16.145Z,11.82
2023-06-14T13:51:58.707Z,8.00
2023-06-14T13:55:40.640Z,6.85
2023-06-14T13:59:23.509Z,9.02
2023-06-14T14:03:05.481Z,7.85
2023-06-14T14:06:49.307Z,6.80
2023-06-14T14:10:31.946Z,7.05
2023-06-14T14:14:13.875Z,7.05
2023-06-14T14:17:58.698Z,6.93
2023-06-14T14:21:40.602Z,9.25
2023-06-14T14:25:22.853Z,7.47
2023-06-14T14:32:46.679Z,6.25
2023-06-14T14:40:10.914Z,9.43
2023-06-14T14:43:52.743Z,7.03
2023-06-14T14:47:34.661Z,7.63
2023-06-14T14:51:16.654Z,8.93
2023-06-14T14:54:58.449Z,6.25
2023-06-14T14:58:40.248Z,8.43
2023-06-14T15:02:25.179Z,9.30
2023-06-14T15:06:07.168Z,7.25
2023-06-14T15:09:51.608Z,7.85
2023-06-14T15:13:33.653Z,8.15
2023-06-14T15:21:12.373Z,9.77
2023-06-14T15:24:54.415Z,8.88
2023-06-14T15:32:18.587Z,6.63
2023-06-14T15:36:00.473Z,7.97
2023-06-14T15:39:42.374Z,8.27
2023-06-14T15:43:24.714Z,7.90
2023-06-14T15:47:08.345Z,9.88
2023-06-14T15:50:53.542Z,7.00
2023-06-14T15:54:35.377Z,8.13
2023-06-14T15:58:17.340Z,7.47
2023-06-14T16:05:41.021Z,8.23
2023-06-14T16:09:22.965Z,7.22
2023-06-14T16:13:04.802Z,7.90
2023-06-14T16:16:47.881Z,6.65
2023-06-14T16:20:30.982Z,8.65
2023-06-14T16:24:12.989Z,8.55
2023-06-14T16:27:54.816Z,7.05
2023-06-14T16:31:36.670Z,8.32
2023-06-14T16:35:18.508Z,8.65
2023-06-14T16:39:00.410Z,9.70
2023-06-14T16:42:43.310Z,6.18
2023-06-14T16:46:35.781Z,7.70
2023-06-14T16:50:18.050Z,10.05
2023-06-14T16:54:00.111Z,8.23
2023-06-14T16:57:42.045Z,8.40
2023-06-14T17:01:25.861Z,7.93
2023-06-14T17:05:08.244Z,7.85
2023-06-14T17:08:53.069Z,7.65
2023-06-14T17:12:36.372Z,8.43
2023-06-14T17:16:18.682Z,8.15
2023-06-14T17:20:00.553Z,7.60
2023-06-14T17:23:42.457Z,7.90
2023-06-14T17:27:24.625Z,8.10
2023-06-14T17:31:06.430Z,8.18
2023-06-14T17:34:48.218Z,9.32
2023-06-14T17:38:31.847Z,8.40
2023-06-14T17:42:13.659Z,7.65
2023-06-14T17:45:55.532Z,7.93
2023-06-14T17:49:37.359Z,12.95
2023-06-14T17:53:19.184Z,7.40
2023-06-14T17:57:01.035Z,6.80
2023-06-14T18:00:42.871Z,6.45
2023-06-14T18:04:24.687Z,7.20
2023-06-14T18:08:09.477Z,6.40
2023-06-14T18:11:51.355Z,7.22
2023-06-14T18:15:33.303Z,7.82
2023-06-14T18:19:18.068Z,7.55
2023-06-14T18:22:59.889Z,6.47
2023-06-14T18:26:41.743Z,8.63
2023-06-14T18:30:24.016Z,9.05
2023-06-14T18:34:07.578Z,9.02
2023-06-14T18:37:49.508Z,6.32
2023-06-14T18:41:31.354Z,7.20
2023-06-14T18:45:13.714Z,8.30
2023-06-14T18:48:59.532Z,12.40
2023-06-14T18:52:41.685Z,11.20
2023-06-14T19:00:09.901Z,8.10
2023-06-14T19:03:51.904Z,7.97
2023-06-14T19:07:33.853Z,10.07
2023-06-14T19:11:16.165Z,7.30
2023-06-14T19:18:39.751Z,8.48
2023-06-14T19:22:21.645Z,10.85
2023-06-14T19:26:05.150Z,8.20
2023-06-14T19:29:46.923Z,9.60
2023-06-14T19:33:28.798Z,7.80
2023-06-14T19:37:10.744Z,10.70
2023-06-14T19:40:52.542Z,28.55
2023-06-14T19:44:34.412Z,24.30
2023-06-14T19:48:20.904Z,22.45
2023-06-14T19:52:03.675Z,23.13
2023-06-14T19:55:45.974Z,20.63
2023-06-14T20:03:11.727Z,14.88
2023-06-14T20:06:56.735Z,15.20
2023-06-14T20:10:38.595Z,13.85
2023-06-14T20:14:20.673Z,10.63
2023-06-14T20:18:02.639Z,10.50
2023-06-14T20:21:44.570Z,10.80
2023-06-14T20:25:27.689Z,10.27
2023-06-14T20:29:09.890Z,10.63
2023-06-14T20:32:51.711Z,10.00
2023-06-14T20:36:33.882Z,8.95
2023-06-14T20:40:26.087Z,8.50
2023-06-14T20:44:10.316Z,14.25
2023-06-14T20:47:52.817Z,11.90
2023-06-14T20:51:34.732Z,11.07
2023-06-14T20:55:16.941Z,11.55
2023-06-14T20:58:58.804Z,7.45
2023-06-14T21:02:41.259Z,11.65
2023-06-14T21:10:05.811Z,8.90
2023-06-14T21:13:47.674Z,7.70
2023-06-14T21:17:29.829Z,6.80
2023-06-14T21:21:11.654Z,9.63
2023-06-14T21:24:53.458Z,11.65
2023-06-14T21:28:35.448Z,8.57
2023-06-14T21:32:17.291Z,8.00
2023-06-14T21:35:59.192Z,7.82
2023-06-14T21:39:40.982Z,13.10
2023-06-14T21:43:22.860Z,9.10
2023-06-14T21:47:04.984Z,11.93
2023-06-14T21:50:47.756Z,9.57
2023-06-14T21:54:29.762Z,10.05
2023-06-14T21:58:11.713Z,9.18
2023-06-14T22:01:53.537Z,8.68
2023-06-14T22:05:35.451Z,9.65
2023-06-14T22:09:17.319Z,7.30
2023-06-14T22:13:01.716Z,9.63
2023-06-14T22:16:44.454Z,8.90
2023-06-14T22:20:29.792Z,8.02
2023-06-14T22:24:13.442Z,10.93
2023-06-14T22:27:55.567Z,11.77
2023-06-14T22:31:38.629Z,11.13
2023-06-14T22:35:22.628Z,11.32
2023-06-14T22:39:06.747Z,11.65
2023-06-14T22:42:53.887Z,8.20
2023-06-14T22:46:39.640Z,8.82
2023-06-14T22:50:21.926Z,10.48
2023-06-14T22:54:07.914Z,11.02
2023-06-14T22:57:52.250Z,10.27
2023-06-14T23:01:37.115Z,9.05
2023-06-14T23:05:20.538Z,9.50
2023-06-14T23:09:05.495Z,8.75
2023-06-14T23:12:47.763Z,8.85
2023-06-14T23:16:29.912Z,18.00
2023-06-14T23:20:16.846Z,12.73
2023-06-14T23:23:59.131Z,8.90
2023-06-14T23:27:41.839Z,10.52
2023-06-14T23:35:10.807Z,9.75
2023-06-14T23:38:52.861Z,10.63
2023-06-14T23:42:42.105Z,9.45
2023-06-14T23:46:29.537Z,10.18
2023-06-14T23:50:15.714Z,9.43
2023-06-14T23:54:00.961Z,9.52
2023-06-14T23:57:43.963Z,12.70
